Time;durP1;ratioP1;P1;durP2;ratioP2;P2;SDS_P1;SDS_P2;PMS_P1;PMS_P2;Temp;Humidity;BMP_temperature;BMP_pressure;BME280_temperature;BME280_humidity;BME280_pressure;Samples;Min_cycle;Max_cycle;Signal;HPM_P1;HPM_P2
2023/01/28 00:01:08;;;;;;;10.73;7.80;;;;;;;3.64;100.00;103105.59;5028153;28;20445;-71
2023/01/28 00:03:34;;;;;;;11.40;7.80;;;;;;;3.70;100.00;103104.94;5028049;28;20086;-69
2023/01/28 00:06:07;;;;;;;10.13;7.68;;;;;;;3.69;100.00;103104.03;5028480;28;20163;-68
2023/01/28 00:08:33;;;;;;;12.30;8.35;;;;;;;3.55;100.00;103106.19;5011183;28;20025;-69
2023/01/28 00:10:59;;;;;;;10.55;8.00;;;;;;;3.65;100.00;103108.25;5028816;28;20029;-70
2023/01/28 00:13:25;;;;;;;10.90;8.27;;;;;;;3.69;100.00;103106.66;5028901;28;20079;-70
2023/01/28 00:15:58;;;;;;;11.13;8.63;;;;;;;3.63;100.00;103109.94;5029986;28;20108;-71
2023/01/28 00:18:25;;;;;;;13.82;7.82;;;;;;;3.44;100.00;103102.38;5027028;28;20139;-69
2023/01/28 00:20:58;;;;;;;11.15;7.85;;;;;;;3.49;100.00;103106.88;5028590;28;20029;-68
2023/01/28 00:23:24;;;;;;;9.48;8.00;;;;;;;3.46;100.00;103104.19;5027938;28;20029;-65
2023/01/28 00:25:49;;;;;;;11.48;8.32;;;;;;;3.58;100.00;103105.44;5029355;28;20483;-69
2023/01/28 00:28:15;;;;;;;12.68;8.98;;;;;;;3.55;100.00;103106.19;5028814;28;20049;-69
2023/01/28 00:30:40;;;;;;;11.02;8.32;;;;;;;3.56;100.00;103104.50;5029072;28;20021;-69
2023/01/28 00:33:06;;;;;;;13.20;8.48;;;;;;;3.58;100.00;103095.00;5008827;28;20452;-68
2023/01/28 00:35:31;;;;;;;12.80;9.25;;;;;;;3.53;100.00;103094.84;5027548;28;20028;-69
2023/01/28 00:37:56;;;;;;;13.82;8.48;;;;;;;3.50;100.00;103100.88;5028381;28;20456;-68
2023/01/28 00:40:22;;;;;;;10.38;8.20;;;;;;;3.56;100.00;103104.50;5028360;28;20041;-69
2023/01/28 00:42:47;;;;;;;12.20;8.93;;;;;;;3.45;100.00;103102.41;5028935;28;20049;-70
2023/01/28 00:45:13;;;;;;;12.48;8.40;;;;;;;3.53;100.00;103103.53;5031296;28;20018;-70
2023/01/28 00:47:38;;;;;;;11.88;7.93;;;;;;;3.61;100.00;103097.72;5014848;28;20495;-70
2023/01/28 00:50:04;;;;;;;12.50;9.15;;;;;;;3.70;100.00;103102.34;5032785;28;20026;-69
2023/01/28 00:52:29;;;;;;;16.77;9.10;;;;;;;3.72;100.00;103085.88;5031886;28;20030;-69
2023/01/28 00:54:56;;;;;;;13.38;9.05;;;;;;;3.64;100.00;103098.69;5032715;28;20018;-70
2023/01/28 00:57:21;;;;;;;12.20;8.82;;;;;;;3.72;100.00;103098.94;5032784;28;20030;-66
2023/01/28 00:59:46;;;;;;;11.43;8.45;;;;;;;3.82;100.00;103094.88;5015893;28;20048;-69
2023/01/28 01:02:12;;;;;;;14.00;9.40;;;;;;;3.77;100.00;103101.69;5031179;28;20033;-68
2023/01/28 01:04:38;;;;;;;12.55;9.30;;;;;;;3.76;100.00;103103.38;5031683;28;20061;-68
2023/01/28 01:07:04;;;;;;;12.93;9.20;;;;;;;3.77;100.00;103097.31;5031034;28;20021;-69
2023/01/28 01:09:30;;;;;;;12.70;8.57;;;;;;;3.82;100.00;103104.44;5032329;28;20033;-66
2023/01/28 01:11:55;;;;;;;13.10;9.80;;;;;;;3.75;100.00;103100.72;5032456;28;20022;-70
2023/01/28 01:14:20;;;;;;;12.80;8.48;;;;;;;3.69;100.00;103095.31;5032710;28;20380;-69
2023/01/28 01:16:46;;;;;;;12.52;9.30;;;;;;;3.76;100.00;103099.88;5032036;28;20056;-70
2023/01/28 01:19:12;;;;;;;12.27;8.98;;;;;;;3.73;100.00;103103.28;5032344;28;20116;-67
2023/01/28 01:21:37;;;;;;;13.98;8.73;;;;;;;3.73;100.00;103105.91;5031350;28;20033;-68
2023/01/28 01:24:03;;;;;;;11.73;9.00;;;;;;;3.69;100.00;103101.44;5030899;28;20033;-69
2023/01/28 01:26:28;;;;;;;11.48;8.90;;;;;;;3.72;100.00;103095.41;5031731;28;20038;-70
2023/01/28 01:28:54;;;;;;;13.73;8.63;;;;;;;3.71;100.00;103099.78;5031339;28;20340;-69
2023/01/28 01:31:20;;;;;;;12.13;9.02;;;;;;;3.70;100.00;103095.38;5032254;28;20029;-69
2023/01/28 01:33:47;;;;;;;12.15;8.50;;;;;;;3.73;100.00;103094.59;5013833;28;20025;-70
2023/01/28 01:36:16;;;;;;;11.65;8.93;;;;;;;3.82;100.00;103096.63;5031387;28;20056;-71
2023/01/28 01:38:42;;;;;;;12.45;9.07;;;;;;;3.80;100.00;103093.97;5031840;28;20435;-68
2023/01/28 01:41:22;;;;;;;11.50;8.75;;;;;;;3.86;100.00;103088.94;5031528;28;20037;-68
2023/01/28 01:43:57;;;;;;;14.05;9.75;;;;;;;3.79;100.00;103097.38;5031637;28;20033;-70
2023/01/28 01:46:48;;;;;;;13.00;9.75;;;;;;;3.64;100.00;103097.78;5031744;28;20030;-66
2023/01/28 01:49:20;;;;;;;13.05;9.02;;;;;;;3.68;100.00;103094.47;5021988;28;20042;-69
2023/01/28 01:51:52;;;;;;;13.07;8.90;;;;;;;3.68;100.00;103104.88;5029282;28;20036;-67
2023/01/28 01:54:19;;;;;;;11.20;8.77;;;;;;;3.58;100.00;103103.69;4998311;28;20056;-68
2023/01/28 01:56:46;;;;;;;12.88;9.45;;;;;;;3.63;100.00;103102.13;5035775;28;20030;-68
2023/01/28 01:59:14;;;;;;;13.32;9.02;;;;;;;3.63;100.00;103091.69;5039050;28;20040;-73
2023/01/28 02:01:40;;;;;;;11.75;8.80;;;;;;;3.62;100.00;103097.75;5018867;28;20029;-66
2023/01/28 02:04:19;;;;;;;13.10;9.13;;;;;;;3.72;100.00;103085.88;5016370;28;20460;-69
2023/01/28 02:06:44;;;;;;;11.70;9.00;;;;;;;3.52;100.00;103095.66;5019028;28;20040;-68
2023/01/28 02:09:24;;;;;;;13.93;8.80;;;;;;;3.52;100.00;103093.06;5040525;28;20022;-69
2023/01/28 02:11:54;;;;;;;14.25;9.00;;;;;;;3.69;100.00;103091.00;5020542;28;20079;-71
2023/01/28 02:14:22;;;;;;;11.00;8.60;;;;;;;3.75;100.00;103092.91;5014907;28;20480;-70
2023/01/28 02:16:47;;;;;;;15.75;9.90;;;;;;;3.76;100.00;103092.06;5032874;28;20018;-69
2023/01/28 02:19:12;;;;;;;12.27;8.73;;;;;;;3.61;100.00;103102.94;5014948;28;20475;-68
2023/01/28 02:21:50;;;;;;;15.52;9.80;;;;;;;3.69;100.00;103105.75;5013781;28;20033;-69
2023/01/28 02:24:23;;;;;;;14.23;9.70;;;;;;;3.67;100.00;103113.53;5031627;28;20469;-69
2023/01/28 02:27:13;;;;;;;13.15;8.70;;;;;;;3.61;100.00;103118.56;5013086;28;20129;-69
2023/01/28 02:29:58;;;;;;;14.15;9.35;;;;;;;3.60;100.00;103122.88;5031018;28;20033;-69
2023/01/28 02:32:37;;;;;;;12.65;8.88;;;;;;;3.61;100.00;103115.97;5106434;23;20055;-70
2023/01/28 02:35:14;;;;;;;15.50;9.93;;;;;;;3.56;100.00;103123.63;5052016;28;20044;-71
2023/01/28 02:38:05;;;;;;;16.20;9.93;;;;;;;3.43;100.00;103118.84;5053009;28;20532;-69
2023/01/28 02:41:00;;;;;;;15.90;9.50;;;;;;;3.51;100.00;103127.78;5056073;28;20040;-65
2023/01/28 02:43:29;;;;;;;12.23;8.63;;;;;;;3.54;100.00;103117.47;5071269;28;20129;-70
2023/01/28 02:48:55;;;;;;;13.85;9.63;;;;;;;3.75;100.00;103104.25;4988778;28;20477;-70
2023/01/28 02:51:21;;;;;;;12.85;9.40;;;;;;;3.64;100.00;103103.88;5018038;28;20051;-66
2023/01/28 02:53:56;;;;;;;12.80;9.65;;;;;;;3.58;100.00;103110.66;5050671;28;20095;-69
2023/01/28 02:56:37;;;;;;;13.45;8.60;;;;;;;3.36;100.00;103112.53;5039038;28;20021;-68
2023/01/28 02:59:35;;;;;;;10.27;7.85;;;;;;;3.43;100.00;103117.09;5053067;28;20059;-68
2023/01/28 03:02:29;;;;;;;10.18;7.85;;;;;;;3.43;100.00;103118.84;5052124;28;20024;-69
2023/01/28 03:05:19;;;;;;;10.43;7.50;;;;;;;3.36;100.00;103118.66;5070650;28;20079;-67
2023/01/28 03:07:45;;;;;;;6.90;6.03;;;;;;;3.33;100.00;103122.84;5051926;28;20359;-70
2023/01/28 03:10:15;;;;;;;7.85;5.22;;;;;;;3.43;100.00;103119.72;5050721;28;20029;-70
2023/01/28 03:38:21;;;;;;;6.75;4.80;;;;;;;3.46;100.00;103103.31;5035991;28;20056;-71
2023/01/28 03:40:57;;;;;;;5.90;4.47;;;;;;;3.44;100.00;103112.78;5033841;28;20040;-71
2023/01/28 03:43:23;;;;;;;4.60;4.10;;;;;;;3.34;100.00;103119.44;5032608;28;20033;-68
2023/01/28 03:45:51;;;;;;;5.18;4.68;;;;;;;3.44;100.00;103104.97;5050954;28;20075;-69
2023/01/28 03:48:25;;;;;;;5.85;4.57;;;;;;;3.43;100.00;103111.91;5050594;28;20040;-69
2023/01/28 03:50:51;;;;;;;5.90;4.40;;;;;;;3.56;100.00;103109.69;5049256;28;20056;-69
2023/01/28 03:53:17;;;;;;;5.50;4.93;;;;;;;3.49;100.00;103119.06;5050481;28;20471;-71
2023/01/28 03:55:44;;;;;;;5.80;4.10;;;;;;;3.49;100.00;103114.72;5048997;28;20112;-66
2023/01/28 03:58:11;;;;;;;5.63;4.15;;;;;;;3.43;100.00;103122.31;5057644;28;20028;-70
2023/01/28 04:00:40;;;;;;;5.80;4.22;;;;;;;3.53;100.00;103132.22;5057270;28;20056;-69
2023/01/28 04:03:16;;;;;;;4.97;3.85;;;;;;;3.56;100.00;103141.88;5048526;28;20033;-69
2023/01/28 04:05:44;;;;;;;5.75;3.65;;;;;;;3.46;100.00;103142.41;5047786;28;20056;-67
2023/01/28 04:08:10;;;;;;;7.25;4.30;;;;;;;3.28;100.00;103152.25;5049409;28;20052;-67
2023/01/28 04:10:38;;;;;;;9.27;3.92;;;;;;;3.31;100.00;103141.03;5049242;28;20045;-70
2023/01/28 04:13:03;;;;;;;4.35;3.95;;;;;;;3.22;100.00;103143.38;5048332;28;20033;-70
2023/01/28 04:15:29;;;;;;;8.13;3.60;;;;;;;3.24;100.00;103142.56;5030818;28;20096;-70
2023/01/28 04:17:55;;;;;;;3.90;3.50;;;;;;;3.24;100.00;103141.69;5031264;28;20017;-70
2023/01/28 04:20:20;;;;;;;4.25;3.70;;;;;;;3.26;100.00;103147.84;5048195;28;20441;-70
2023/01/28 04:22:45;;;;;;;5.50;3.75;;;;;;;3.35;100.00;103153.38;5049038;28;20040;-69
2023/01/28 04:25:11;;;;;;;6.10;3.83;;;;;;;3.19;100.00;103151.94;5049201;28;20095;-65
2023/01/28 04:27:36;;;;;;;4.78;3.67;;;;;;;3.39;100.00;103152.63;5048932;28;20118;-69
2023/01/28 04:30:01;;;;;;;6.63;4.35;;;;;;;3.26;100.00;103151.34;5049280;28;20040;-70
2023/01/28 04:32:27;;;;;;;4.45;3.65;;;;;;;3.35;100.00;103158.59;5048560;28;20057;-70
2023/01/28 04:34:52;;;;;;;6.05;3.70;;;;;;;3.24;100.00;103153.00;5063234;28;20036;-70
2023/01/28 04:37:17;;;;;;;5.07;3.85;;;;;;;3.22;100.00;103149.44;5068446;28;20048;-70
2023/01/28 04:39:43;;;;;;;6.03;3.67;;;;;;;3.33;100.00;103148.91;5067893;28;20032;-71
2023/01/28 04:42:08;;;;;;;6.47;3.90;;;;;;;3.25;100.00;103141.72;5068368;28;20039;-69
2023/01/28 04:44:33;;;;;;;4.30;3.90;;;;;;;3.32;100.00;103139.34;5068762;28;20012;-69
2023/01/28 04:46:59;;;;;;;4.82;3.70;;;;;;;3.31;100.00;103140.19;5068891;28;20463;-66
2023/01/28 04:49:24;;;;;;;4.78;3.80;;;;;;;3.37;100.00;103132.56;5068739;28;20369;-69
2023/01/28 04:51:49;;;;;;;4.75;4.28;;;;;;;3.45;100.00;103131.09;5050686;28;20360;-69
2023/01/28 04:54:15;;;;;;;5.10;3.53;;;;;;;3.41;100.00;103130.09;5048150;28;20466;-69
2023/01/28 04:56:40;;;;;;;4.75;3.90;;;;;;;3.39;100.00;103125.66;5048040;28;20069;-68
2023/01/28 04:59:07;;;;;;;4.43;4.03;;;;;;;3.41;100.00;103124.00;5030916;28;20021;-71
2023/01/28 05:01:32;;;;;;;4.70;4.18;;;;;;;3.45;100.00;103138.91;5048228;28;20418;-70
2023/01/28 05:03:58;;;;;;;4.88;4.13;;;;;;;3.45;100.00;103133.69;5048257;28;20107;-68
2023/01/28 05:06:23;;;;;;;6.28;3.60;;;;;;;3.34;100.00;103129.88;5047700;28;20079;-71
2023/01/28 05:08:49;;;;;;;7.68;4.38;;;;;;;3.38;100.00;103134.34;5030436;28;20025;-71
2023/01/28 05:11:14;;;;;;;4.65;4.07;;;;;;;3.52;100.00;103143.50;5048596;28;20088;-67
2023/01/28 05:13:40;;;;;;;7.07;4.30;;;;;;;3.28;100.00;103152.25;5030494;28;20123;-69
2023/01/28 05:16:06;;;;;;;4.32;3.92;;;;;;;3.37;100.00;103145.59;5047962;28;20104;-72
2023/01/28 05:18:31;;;;;;;5.35;4.25;;;;;;;3.41;100.00;103147.47;5047633;28;20025;-70
2023/01/28 05:20:57;;;;;;;6.43;4.35;;;;;;;3.46;100.00;103139.81;5047277;28;20090;-70
2023/01/28 05:23:22;;;;;;;6.88;3.88;;;;;;;3.46;100.00;103143.28;5051654;28;20024;-69
2023/01/28 05:25:47;;;;;;;4.00;3.63;;;;;;;3.45;100.00;103144.13;5069187;28;20025;-69
2023/01/28 05:28:13;;;;;;;6.47;4.47;;;;;;;3.44;100.00;103146.69;5049929;28;20471;-69
2023/01/28 05:30:38;;;;;;;5.82;4.20;;;;;;;3.41;100.00;103131.84;5052026;28;20087;-70
2023/01/28 05:33:04;;;;;;;4.80;4.00;;;;;;;3.39;100.00;103137.00;5054002;28;20045;-69
2023/01/28 05:35:30;;;;;;;4.78;4.30;;;;;;;3.27;100.00;103131.34;5062846;28;20016;-70
2023/01/28 05:37:55;;;;;;;4.80;4.30;;;;;;;3.19;100.00;103140.66;5050176;28;20068;-71
2023/01/28 05:40:20;;;;;;;5.97;4.85;;;;;;;3.24;100.00;103132.16;5052019;28;20023;-71
2023/01/28 05:42:46;;;;;;;7.90;4.25;;;;;;;3.40;100.00;103127.44;5050964;28;20050;-71
2023/01/28 05:45:11;;;;;;;5.60;4.43;;;;;;;3.41;100.00;103131.84;5051709;28;20025;-71
2023/01/28 05:47:37;;;;;;;6.18;4.25;;;;;;;3.45;100.00;103131.09;5051243;28;20406;-70
2023/01/28 05:50:02;;;;;;;5.25;4.45;;;;;;;3.29;100.00;103133.19;5032694;28;20079;-68
2023/01/28 05:52:28;;;;;;;5.05;3.88;;;;;;;3.45;100.00;103132.81;5051829;28;20363;-71
2023/01/28 05:54:53;;;;;;;5.57;4.55;;;;;;;3.45;100.00;103135.41;5033521;28;20475;-69
2023/01/28 05:57:18;;;;;;;4.97;4.45;;;;;;;3.44;100.00;103120.63;5054043;28;20056;-71
2023/01/28 05:59:44;;;;;;;4.93;4.30;;;;;;;3.41;100.00;103127.50;5038871;28;20032;-69
2023/01/28 06:02:09;;;;;;;6.45;4.65;;;;;;;3.45;100.00;103143.22;5051116;28;20102;-69
2023/01/28 06:04:34;;;;;;;7.38;4.72;;;;;;;3.17;100.00;103140.59;5049791;28;20025;-70
2023/01/28 06:07:00;;;;;;;5.70;4.88;;;;;;;3.26;100.00;103134.81;5051998;28;20453;-72
2023/01/28 06:09:25;;;;;;;5.75;4.88;;;;;;;3.33;100.00;103133.28;5051233;28;20597;-70
2023/01/28 06:11:52;;;;;;;5.72;4.68;;;;;;;3.28;100.00;103139.22;5050866;28;20460;-70
2023/01/28 06:14:17;;;;;;;5.65;4.70;;;;;;;3.29;100.00;103143.59;5051732;28;20033;-71
2023/01/28 06:16:43;;;;;;;5.78;5.03;;;;;;;3.27;100.00;103140.06;5050985;28;20021;-71
2023/01/28 06:19:08;;;;;;;7.03;4.80;;;;;;;3.26;100.00;103135.72;5057977;28;20466;-67
2023/01/28 06:21:33;;;;;;;5.55;4.53;;;;;;;3.35;100.00;103145.56;5053990;28;20074;-68
2023/01/28 06:23:59;;;;;;;6.30;4.78;;;;;;;3.36;100.00;103152.53;5059378;28;20033;-71
2023/01/28 06:26:24;;;;;;;5.80;4.93;;;;;;;3.28;100.00;103152.25;5032702;28;20459;-72
2023/01/28 06:28:49;;;;;;;6.05;4.70;;;;;;;3.37;100.00;103156.91;5057260;28;20060;-67
2023/01/28 06:31:15;;;;;;;7.47;5.22;;;;;;;3.51;100.00;103167.78;5034521;28;20024;-72
2023/01/28 06:33:40;;;;;;;6.80;4.85;;;;;;;3.46;100.00;103156.31;5050417;28;20029;-73
2023/01/28 06:36:06;;;;;;;6.72;5.03;;;;;;;3.29;100.00;103158.38;5049692;28;20056;-71
2023/01/28 06:38:31;;;;;;;5.78;5.15;;;;;;;3.32;100.00;103160.19;5049813;28;20037;-71
2023/01/28 06:40:57;;;;;;;8.75;4.78;;;;;;;3.38;100.00;103158.69;5050720;28;20493;-71
2023/01/28 06:43:26;;;;;;;6.05;5.10;;;;;;;3.37;100.00;103158.63;5049113;28;20048;-67
2023/01/28 06:45:52;;;;;;;;;;;;;;;3.31;100.00;103158.41;5051359;28;20052;-66
2023/01/28 06:48:17;;;;;;;6.88;4.57;;;;;;;3.27;100.00;103160.91;5050804;28;20306;-70
2023/01/28 06:50:45;;;;;;;5.90;5.30;;;;;;;3.36;100.00;103159.44;5032197;28;20032;-65
2023/01/28 06:53:11;;;;;;;7.85;5.13;;;;;;;3.41;100.00;103163.97;5032462;28;20567;-68
2023/01/28 06:55:36;;;;;;;7.05;5.55;;;;;;;3.35;100.00;103163.78;5050166;28;20025;-73
2023/01/28 06:58:01;;;;;;;5.57;4.95;;;;;;;3.28;100.00;103153.97;5049608;28;20418;-71
2023/01/28 07:00:27;;;;;;;6.10;5.38;;;;;;;3.25;100.00;103161.72;5049957;28;20395;-70
2023/01/28 07:02:55;;;;;;;6.60;5.45;;;;;;;3.28;100.00;103167.91;5049621;28;20025;-68
2023/01/28 07:05:20;;;;;;;6.07;5.47;;;;;;;3.14;100.00;103158.72;5050184;28;20021;-68
2023/01/28 07:07:45;;;;;;;6.68;5.60;;;;;;;3.29;100.00;103159.22;5061980;28;20032;-70
2023/01/28 07:10:11;;;;;;;7.90;5.35;;;;;;;3.29;100.00;103166.19;5069852;28;20055;-70
2023/01/28 07:12:36;;;;;;;7.07;5.85;;;;;;;3.17;100.00;103158.84;5068373;28;20604;-69
2023/01/28 07:15:01;;;;;;;6.68;5.82;;;;;;;3.15;100.00;103160.50;5051592;28;20410;-67
2023/01/28 07:17:27;;;;;;;7.13;5.50;;;;;;;3.29;100.00;103159.22;5069865;28;20386;-69
2023/01/28 07:19:53;;;;;;;7.38;5.53;;;;;;;3.31;100.00;103161.91;5069208;28;20118;-72
2023/01/28 07:22:18;;;;;;;7.45;6.00;;;;;;;3.19;100.00;103157.16;5069223;28;20064;-67
2023/01/28 07:24:44;;;;;;;8.35;5.75;;;;;;;3.19;100.00;103170.19;5069508;28;20056;-70
2023/01/28 07:27:09;;;;;;;6.60;5.40;;;;;;;3.24;100.00;103171.22;5063712;28;20029;-71
2023/01/28 07:29:34;;;;;;;7.07;5.53;;;;;;;3.12;100.00;103171.69;5068990;28;20036;-72
2023/01/28 07:32:00;;;;;;;8.30;5.75;;;;;;;3.12;100.00;103170.81;5066163;28;20480;-68
2023/01/28 07:34:25;;;;;;;8.07;5.65;;;;;;;3.10;100.00;103165.53;5052618;28;20519;-68
2023/01/28 07:36:50;;;;;;;7.55;6.05;;;;;;;3.07;100.00;103168.03;5042539;28;20025;-70
2023/01/28 07:39:16;;;;;;;11.65;6.57;;;;;;;3.10;100.00;103162.94;5040069;28;20030;-69
2023/01/28 07:41:41;;;;;;;9.30;6.28;;;;;;;3.02;100.00;103172.22;5047064;28;20461;-69
2023/01/28 07:44:06;;;;;;;8.52;6.00;;;;;;;2.99;100.00;103166.88;5048110;28;20021;-70
2023/01/28 07:46:32;;;;;;;10.10;6.30;;;;;;;3.01;100.00;103170.44;5043104;28;20037;-69
2023/01/28 07:48:57;;;;;;;6.97;5.70;;;;;;;3.07;100.00;103169.78;5038267;28;20386;-69
2023/01/28 07:51:22;;;;;;;9.50;6.10;;;;;;;3.05;100.00;103168.81;5036857;28;20357;-68
2023/01/28 07:53:48;;;;;;;6.65;5.63;;;;;;;2.97;100.00;103181.56;5039222;28;20040;-68
2023/01/28 07:56:13;;;;;;;7.47;5.45;;;;;;;2.94;100.00;103184.94;5039471;28;20017;-69
2023/01/28 07:58:39;;;;;;;10.52;5.55;;;;;;;2.85;100.00;103182.00;5033997;28;20049;-69
2023/01/28 08:01:04;;;;;;;9.25;5.78;;;;;;;2.84;100.00;103182.84;5030468;28;20077;-69
2023/01/28 08:03:30;;;;;;;8.15;5.63;;;;;;;2.87;100.00;103183.84;5043776;28;20523;-68
2023/01/28 08:05:55;;;;;;;7.60;6.00;;;;;;;2.88;100.00;103185.63;5039784;28;20117;-68
2023/01/28 08:08:22;;;;;;;8.48;6.13;;;;;;;2.98;100.00;103194.63;5011580;28;20025;-68
2023/01/28 08:10:47;;;;;;;12.63;6.32;;;;;;;2.99;100.00;103193.84;5032680;28;20033;-69
2023/01/28 08:13:14;;;;;;;9.30;6.28;;;;;;;3.05;100.00;103192.25;5030294;28;20378;-66
2023/01/28 08:15:39;;;;;;;11.32;6.72;;;;;;;3.10;100.00;103199.41;5010789;28;20495;-70
2023/01/28 08:18:06;;;;;;;10.32;6.60;;;;;;;3.15;100.00;103192.66;5026894;28;20045;-66
2023/01/28 08:20:32;;;;;;;7.60;6.78;;;;;;;3.32;100.00;103188.84;5027554;28;20096;-70
2023/01/28 08:23:17;;;;;;;9.10;7.03;;;;;;;3.46;100.00;103191.94;5009887;28;20133;-69
2023/01/28 08:25:43;;;;;;;14.80;6.93;;;;;;;3.36;100.00;103204.66;5028769;28;20069;-68
2023/01/28 08:28:09;;;;;;;11.40;7.10;;;;;;;3.22;100.00;103204.16;5011399;28;20448;-72
2023/01/28 08:30:36;;;;;;;11.57;6.95;;;;;;;3.27;100.00;103204.31;5028434;28;20386;-70
2023/01/28 08:33:02;;;;;;;8.73;6.97;;;;;;;3.26;100.00;103210.38;5027475;28;20052;-70
2023/01/28 08:35:28;;;;;;;8.52;7.10;;;;;;;3.23;100.00;103211.16;5047467;28;20033;-70
2023/01/28 08:37:53;;;;;;;8.38;6.60;;;;;;;3.16;100.00;103222.19;5048271;28;20104;-71
2023/01/28 08:40:19;;;;;;;7.65;6.45;;;;;;;2.99;100.00;103217.28;5048827;28;20029;-70
2023/01/28 08:42:51;;;;;;;7.90;6.47;;;;;;;2.77;100.00;103213.00;5047294;28;20021;-69
2023/01/28 08:45:18;;;;;;;7.53;5.63;;;;;;;2.81;100.00;103221.78;5065118;28;20056;-68
2023/01/28 08:47:48;;;;;;;8.13;6.18;;;;;;;2.76;100.00;103219.00;5066645;28;20049;-70
2023/01/28 08:50:13;;;;;;;8.25;6.20;;;;;;;2.70;100.00;103224.88;5066654;28;20024;-69
2023/01/28 08:52:39;;;;;;;8.30;6.50;;;;;;;2.79;100.00;103232.16;5068054;28;20032;-70
2023/01/28 08:55:05;;;;;;;7.75;5.65;;;;;;;2.84;100.00;103228.00;5068041;28;20052;-71
2023/01/28 08:57:31;;;;;;;9.02;6.35;;;;;;;2.87;100.00;103227.22;5062510;28;20059;-68
2023/01/28 08:59:56;;;;;;;7.32;6.10;;;;;;;3.00;100.00;103237.28;5029932;28;20048;-68
2023/01/28 09:02:21;;;;;;;7.85;5.70;;;;;;;3.10;100.00;103230.66;5064127;28;20082;-66
2023/01/28 09:04:47;;;;;;;10.45;5.95;;;;;;;3.21;100.00;103225.84;5067160;28;20028;-69
2023/01/28 09:07:12;;;;;;;8.88;5.90;;;;;;;3.14;100.00;103235.19;5071090;28;20097;-70
2023/01/28 09:09:37;;;;;;;6.07;5.28;;;;;;;3.18;100.00;103238.75;5055586;28;20028;-68
2023/01/28 09:12:04;;;;;;;11.48;6.15;;;;;;;3.35;100.00;103241.09;5052087;28;20027;-70
2023/01/28 09:14:30;;;;;;;9.88;5.85;;;;;;;3.44;100.00;103241.41;5050982;28;20059;-70
2023/01/28 09:16:55;;;;;;;11.90;6.05;;;;;;;3.54;100.00;103250.44;5051909;28;20112;-71
2023/01/28 09:19:20;;;;;;;12.50;6.43;;;;;;;3.61;100.00;103254.16;5051472;28;20372;-69
2023/01/28 09:21:46;;;;;;;8.20;5.25;;;;;;;3.70;100.00;103256.19;5032693;28;20033;-70
2023/01/28 09:24:11;;;;;;;6.78;5.10;;;;;;;3.49;100.00;103265.91;5051511;28;20115;-68
2023/01/28 09:26:37;;;;;;;6.20;5.10;;;;;;;3.43;100.00;103270.91;5050703;28;20051;-69
2023/01/28 09:29:02;;;;;;;7.05;4.53;;;;;;;3.44;100.00;103271.78;5033552;28;20493;-70
2023/01/28 09:31:27;;;;;;;5.70;5.00;;;;;;;3.58;100.00;103280.13;5051080;28;20483;-71
2023/01/28 09:33:56;;;;;;;5.57;4.50;;;;;;;3.50;100.00;103277.22;5050707;28;20033;-70
2023/01/28 09:36:21;;;;;;;7.15;4.82;;;;;;;3.62;100.00;103271.56;5052606;28;20070;-67
2023/01/28 09:38:47;;;;;;;5.85;5.25;;;;;;;4.02;100.00;103287.66;5036755;28;20024;-70
2023/01/28 09:41:25;;;;;;;8.90;4.40;;;;;;;3.93;99.31;103277.81;5049658;28;20112;-72
2023/01/28 09:44:32;;;;;;;5.35;4.85;;;;;;;3.89;99.28;103276.81;5034659;28;20116;-69
2023/01/28 09:47:02;;;;;;;7.32;5.05;;;;;;;4.08;99.27;103276.53;5030224;28;20497;-70
2023/01/28 09:49:44;;;;;;;6.88;5.07;;;;;;;3.94;99.38;103271.75;5051124;28;20025;-73
2023/01/28 09:52:18;;;;;;;6.28;5.20;;;;;;;3.98;99.40;103278.88;5045261;28;20032;-70
2023/01/28 09:54:49;;;;;;;5.47;4.95;;;;;;;3.82;99.69;103271.34;5041067;28;20085;-71
2023/01/28 09:57:26;;;;;;;6.55;4.50;;;;;;;3.78;99.81;103276.47;5037694;28;20426;-69
2023/01/28 09:59:52;;;;;;;6.18;5.20;;;;;;;3.83;99.42;103275.72;5060954;28;20021;-67
2023/01/28 10:02:46;;;;;;;8.27;4.80;;;;;;;3.82;99.31;103287.00;5058618;28;20028;-69
2023/01/28 10:05:21;;;;;;;7.40;5.07;;;;;;;3.69;99.55;103290.91;5055206;28;20119;-68
2023/01/28 10:07:55;;;;;;;6.60;4.70;;;;;;;3.63;99.50;103288.97;5071234;28;20486;-70
2023/01/28 10:10:26;;;;;;;5.80;4.45;;;;;;;3.57;99.72;103288.75;5061072;28;20020;-68
2023/01/28 10:13:05;;;;;;;6.75;4.40;;;;;;;3.58;99.47;103295.75;5051068;28;20029;-67
2023/01/28 10:15:48;;;;;;;10.40;4.95;;;;;;;3.60;99.04;103301.91;5049767;28;20021;-70
2023/01/28 10:18:14;;;;;;;4.97;4.47;;;;;;;3.51;99.72;103294.63;5037668;28;20028;-71
2023/01/28 10:20:44;;;;;;;4.18;3.78;;;;;;;3.66;99.08;103284.75;5054134;28;20040;-70
2023/01/28 10:23:19;;;;;;;4.63;4.07;;;;;;;3.62;99.16;103290.72;5048873;28;20379;-70
2023/01/28 10:25:47;;;;;;;6.50;4.85;;;;;;;3.52;99.02;103279.06;5037568;28;20060;-70
2023/01/28 10:28:20;;;;;;;6.70;4.63;;;;;;;3.69;98.42;103280.47;5059019;28;20066;-70
2023/01/28 10:30:46;;;;;;;7.75;4.53;;;;;;;3.82;98.50;103276.56;5043505;28;20017;-72
2023/01/28 10:33:27;;;;;;;7.78;4.68;;;;;;;3.85;98.08;103281.91;5050128;28;20079;-72
2023/01/28 10:35:53;;;;;;;5.97;4.50;;;;;;;3.96;98.13;103277.03;5050019;28;20095;-71
2023/01/28 10:38:21;;;;;;;7.30;4.80;;;;;;;4.01;97.76;103271.09;5051051;28;20080;-72
2023/01/28 10:40:47;;;;;;;5.35;4.43;;;;;;;4.15;97.78;103273.28;5051464;28;20044;-70
2023/01/28 10:43:18;;;;;;;5.65;4.80;;;;;;;4.10;97.43;103280.09;5038434;28;20024;-73
2023/01/28 10:46:24;;;;;;;6.53;4.40;;;;;;;4.05;97.56;103269.50;5053164;28;20029;-70
2023/01/28 10:49:08;;;;;;;7.72;4.95;;;;;;;4.03;97.19;103272.06;5064629;28;20146;-69
2023/01/28 10:51:36;;;;;;;5.65;4.22;;;;;;;4.18;96.91;103265.56;5060043;28;20020;-71
2023/01/28 10:54:02;;;;;;;4.47;4.07;;;;;;;4.14;97.22;103258.47;5055339;28;20033;-69
2023/01/28 10:56:30;;;;;;;8.57;4.80;;;;;;;4.26;96.98;103251.03;5059546;28;20016;-69
2023/01/28 10:59:02;;;;;;;7.28;4.63;;;;;;;4.25;96.89;103246.66;5040909;28;20028;-65
2023/01/28 11:01:51;;;;;;;7.82;5.00;;;;;;;4.21;97.37;103228.25;5059913;28;20453;-69
2023/01/28 11:04:34;;;;;;;12.82;4.68;;;;;;;4.40;97.26;103230.56;5033184;28;20225;-69
2023/01/28 11:07:00;;;;;;;4.50;4.10;;;;;;;4.43;96.94;103219.38;5063616;28;20103;-70
2023/01/28 11:09:31;;;;;;;6.55;4.90;;;;;;;4.39;96.82;103209.63;5060622;28;20056;-69
2023/01/28 11:11:57;;;;;;;9.57;5.03;;;;;;;4.40;97.24;103196.63;5056875;28;20048;-69
2023/01/28 11:14:25;;;;;;;5.93;4.55;;;;;;;4.37;96.98;103199.16;5061523;28;20027;-70
2023/01/28 11:16:53;;;;;;;6.65;4.55;;;;;;;4.63;96.13;103203.38;5056953;28;20032;-70
2023/01/28 11:19:20;;;;;;;4.85;4.38;;;;;;;4.51;95.81;103196.06;5057718;28;20027;-70
2023/01/28 11:21:52;;;;;;;6.95;4.50;;;;;;;4.30;97.43;103187.66;5059314;28;20514;-71
2023/01/28 11:24:23;;;;;;;5.40;4.38;;;;;;;4.50;96.68;103182.16;5043863;28;20033;-66
2023/01/28 11:26:51;;;;;;;4.82;4.10;;;;;;;4.45;96.34;103177.63;5068044;28;20117;-71
2023/01/28 11:29:26;;;;;;;8.45;4.82;;;;;;;4.57;95.24;103169.28;5042524;28;20021;-70
2023/01/28 11:31:52;;;;;;;4.97;3.65;;;;;;;4.63;94.74;103157.25;5044453;28;20131;-66
2023/01/28 11:34:18;;;;;;;4.88;3.70;;;;;;;4.51;95.04;103154.28;5045997;28;20029;-71
2023/01/28 11:37:00;;;;;;;7.53;4.05;;;;;;;4.49;95.76;103149.03;5044254;28;20615;-69
2023/01/28 11:39:28;;;;;;;9.35;4.10;;;;;;;4.69;94.92;103151.31;5010595;28;20037;-71
2023/01/28 11:41:54;;;;;;;5.60;3.80;;;;;;;4.88;95.05;103157.06;5032984;28;20036;-69
2023/01/28 11:44:22;;;;;;;6.13;4.50;;;;;;;4.95;95.98;103156.41;5022957;28;20022;-70
2023/01/28 11:47:01;;;;;;;12.82;5.95;;;;;;;4.95;95.52;103159.00;5044003;28;20395;-69
2023/01/28 11:49:34;;;;;;;;;;;;;;;5.02;95.75;103173.09;5033900;28;20036;-70
2023/01/28 11:52:06;;;;;;;7.93;4.95;;;;;;;4.88;95.13;103172.75;5023055;28;19917;-72
2023/01/28 11:54:50;;;;;;;8.70;5.47;;;;;;;4.99;94.84;103168.69;5036201;28;20383;-72
2023/01/28 11:57:25;;;;;;;9.00;5.40;;;;;;;5.21;93.72;103174.47;5038069;28;20033;-69
2023/01/28 12:00:16;;;;;;;7.57;5.07;;;;;;;5.24;93.75;103171.09;5013603;28;20598;-70